createdAt,value
2023-04-08T00:00:54.708Z,32.22
2023-04-08T00:03:22.623Z,36.20
2023-04-08T00:05:50.085Z,31.35
2023-04-08T00:08:17.434Z,32.88
2023-04-08T00:10:45.426Z,34.08
2023-04-08T00:13:13.325Z,34.70
2023-04-08T00:15:41.388Z,33.53
2023-04-08T00:18:09.152Z,37.63
2023-04-08T00:20:37.580Z,34.08
2023-04-08T00:23:04.991Z,33.95
2023-04-08T00:25:32.726Z,36.17
2023-04-08T00:28:00.414Z,33.53
2023-04-08T00:30:28.599Z,38.38
2023-04-08T00:32:56.309Z,33.83
2023-04-08T00:35:24.713Z,34.90
2023-04-08T00:37:52.162Z,39.40
2023-04-08T00:40:19.832Z,35.25
2023-04-08T00:42:47.262Z,35.08
2023-04-08T00:45:14.662Z,38.63
2023-04-08T00:47:42.466Z,32.70
2023-04-08T00:50:10.908Z,35.35
2023-04-08T00:52:38.296Z,38.42
2023-04-08T00:55:06.610Z,36.05
2023-04-08T00:57:34.235Z,33.13
2023-04-08T01:00:01.696Z,36.25
2023-04-08T01:03:00.540Z,33.42
2023-04-08T01:05:39.572Z,36.53
2023-04-08T01:08:08.740Z,32.50
2023-04-08T01:10:37.887Z,32.65
2023-04-08T01:13:10.036Z,31.73
2023-04-08T01:15:39.255Z,32.35
2023-04-08T01:18:09.378Z,32.63
2023-04-08T01:20:37.386Z,32.92
2023-04-08T01:23:36.323Z,34.15
2023-04-08T01:26:03.791Z,30.05
2023-04-08T01:28:31.692Z,30.42
2023-04-08T01:31:01.080Z,31.40
2023-04-08T01:33:29.048Z,33.47
2023-04-08T01:35:57.865Z,29.52
2023-04-08T01:38:29.084Z,32.67
2023-04-08T01:40:57.255Z,30.55
2023-04-08T01:43:24.767Z,30.35
2023-04-08T01:45:54.616Z,30.15
2023-04-08T01:48:22.518Z,29.08
2023-04-08T01:50:51.347Z,33.25
2023-04-08T01:53:18.801Z,31.27
2023-04-08T01:55:47.063Z,29.40
2023-04-08T01:58:19.283Z,33.40
2023-04-08T02:00:47.253Z,33.47
2023-04-08T02:03:18.110Z,31.73
2023-04-08T02:05:46.905Z,35.47
2023-04-08T02:08:14.558Z,29.90
2023-04-08T02:10:41.988Z,35.97
2023-04-08T02:13:09.451Z,32.28
2023-04-08T02:15:38.986Z,37.00
2023-04-08T02:18:13.574Z,36.80
2023-04-08T02:20:45.946Z,33.03
2023-04-08T02:23:19.784Z,31.33
2023-04-08T02:25:48.174Z,32.97
2023-04-08T02:28:18.522Z,37.22
2023-04-08T02:30:50.411Z,32.17
2023-04-08T02:33:20.437Z,34.50
2023-04-08T02:35:49.845Z,38.00
2023-04-08T02:38:17.399Z,34.97
2023-04-08T02:40:45.146Z,34.17
2023-04-08T02:43:12.673Z,32.97
2023-04-08T02:45:44.047Z,39.20
2023-04-08T02:48:11.838Z,34.20
2023-04-08T02:50:40.078Z,34.08
2023-04-08T02:53:08.867Z,38.40
2023-04-08T02:55:36.920Z,32.30
2023-04-08T02:58:04.357Z,36.78
2023-04-08T03:00:31.850Z,32.85
2023-04-08T03:02:59.747Z,30.77
2023-04-08T03:05:27.902Z,31.58
2023-04-08T03:07:55.453Z,35.85
2023-04-08T03:10:23.253Z,35.60
2023-04-08T03:12:50.672Z,31.42
2023-04-08T03:15:18.272Z,35.28
2023-04-08T03:17:46.152Z,31.40
2023-04-08T03:20:13.612Z,36.20
2023-04-08T03:22:41.086Z,32.25
2023-04-08T03:25:09.233Z,36.08
2023-04-08T03:27:36.598Z,36.95
2023-04-08T03:30:04.522Z,32.10
2023-04-08T03:32:33.077Z,31.23
2023-04-08T03:35:00.590Z,31.50
2023-04-08T03:37:27.965Z,34.88
2023-04-08T03:39:56.387Z,34.80
2023-04-08T03:42:23.899Z,31.30
2023-04-08T03:44:51.367Z,33.78
2023-04-08T03:47:19.787Z,32.03
2023-04-08T03:49:47.175Z,31.37
2023-04-08T03:52:14.558Z,34.05
2023-04-08T03:54:42.199Z,30.50
2023-04-08T03:57:09.580Z,34.00
2023-04-08T03:59:37.525Z,32.20
2023-04-08T04:02:05.606Z,34.35
2023-04-08T04:04:33.927Z,34.13
2023-04-08T04:07:01.341Z,30.50
2023-04-08T04:09:28.744Z,30.33
2023-04-08T04:11:56.357Z,33.72
2023-04-08T04:14:23.721Z,29.42
2023-04-08T04:16:51.101Z,30.27
2023-04-08T04:19:18.825Z,33.40
2023-04-08T04:22:05.880Z,30.90
2023-04-08T04:24:33.519Z,28.73
2023-04-08T04:27:01.975Z,28.60
2023-04-08T04:29:31.637Z,30.88
2023-04-08T04:31:59.298Z,27.77
2023-04-08T04:34:26.651Z,33.30
2023-04-08T04:36:54.019Z,28.70
2023-04-08T04:39:21.699Z,28.45
2023-04-08T04:41:49.377Z,29.20
2023-04-08T04:44:16.861Z,32.03
2023-04-08T04:46:44.498Z,31.70
2023-04-08T04:49:11.982Z,32.30
2023-04-08T04:51:39.876Z,29.37
2023-04-08T04:54:07.533Z,30.15
2023-04-08T04:56:34.985Z,29.27
2023-04-08T04:59:02.401Z,30.62
2023-04-08T05:01:30.107Z,27.65
2023-04-08T05:03:58.030Z,31.10
2023-04-08T05:06:26.459Z,35.05
2023-04-08T05:08:54.070Z,30.27
2023-04-08T05:11:24.225Z,28.98
2023-04-08T05:13:51.600Z,31.30
2023-04-08T05:16:19.309Z,28.98
2023-04-08T05:18:46.765Z,34.80
2023-04-08T05:21:14.145Z,30.10
2023-04-08T05:23:41.787Z,32.05
2023-04-08T05:26:09.198Z,29.80
2023-04-08T05:28:36.618Z,28.95
2023-04-08T05:31:04.529Z,30.92
2023-04-08T05:33:32.071Z,26.95
2023-04-08T05:35:59.532Z,30.27
2023-04-08T05:38:27.201Z,28.42
2023-04-08T05:40:54.581Z,28.05
2023-04-08T05:43:21.971Z,27.52
2023-04-08T05:45:49.613Z,25.60
2023-04-08T05:48:16.969Z,26.25
2023-04-08T05:50:44.362Z,25.90
2023-04-08T05:53:12.039Z,24.67
2023-04-08T05:55:39.521Z,22.50
2023-04-08T05:58:08.127Z,24.80
2023-04-08T06:00:35.818Z,27.05
2023-04-08T06:03:03.713Z,23.75
2023-04-08T06:05:31.620Z,22.65
2023-04-08T06:07:59.195Z,25.55
2023-04-08T06:10:26.854Z,23.50
2023-04-08T06:12:54.263Z,24.35
2023-04-08T06:15:22.197Z,21.85
2023-04-08T06:17:49.900Z,24.23
2023-04-08T06:20:17.318Z,22.52
2023-04-08T06:22:44.718Z,22.62
2023-04-08T06:25:12.477Z,22.58
2023-04-08T06:27:39.844Z,21.90
2023-04-08T06:30:08.038Z,23.45
2023-04-08T06:32:35.742Z,22.35
2023-04-08T06:35:03.301Z,21.33
2023-04-08T06:37:30.755Z,26.05
2023-04-08T06:39:58.419Z,21.30
2023-04-08T06:42:25.848Z,19.67
2023-04-08T06:44:53.640Z,21.75
2023-04-08T06:47:21.288Z,20.08
2023-04-08T06:49:48.662Z,19.40
2023-04-08T06:52:16.047Z,21.45
2023-04-08T06:54:43.834Z,20.15
2023-04-08T06:57:11.752Z,18.95
2023-04-08T06:59:39.139Z,22.08
2023-04-08T07:02:07.193Z,21.30
2023-04-08T07:04:34.747Z,20.83
2023-04-08T07:07:02.120Z,21.27
2023-04-08T07:09:29.781Z,22.05
2023-04-08T07:11:57.689Z,23.00
2023-04-08T07:14:25.129Z,22.40
2023-04-08T07:16:52.878Z,20.62
2023-04-08T07:19:21.029Z,20.75
2023-04-08T07:21:48.588Z,20.92
2023-04-08T07:24:16.378Z,20.70
2023-04-08T07:26:43.736Z,21.95
2023-04-08T07:29:11.216Z,21.60
2023-04-08T07:31:38.878Z,23.33
2023-04-08T07:34:06.233Z,24.95
2023-04-08T07:36:33.635Z,21.52
2023-04-08T07:39:01.365Z,21.15
2023-04-08T07:41:28.765Z,19.27
2023-04-08T07:43:56.245Z,19.80
2023-04-08T07:46:23.941Z,19.33
2023-04-08T07:48:52.125Z,18.42
2023-04-08T07:51:20.190Z,18.02
2023-04-08T07:53:48.813Z,20.70
2023-04-08T07:56:18.259Z,20.58
2023-04-08T07:58:46.885Z,17.45
2023-04-08T08:01:19.904Z,17.15
2023-04-08T08:03:49.182Z,18.73
2023-04-08T08:06:16.944Z,17.95
2023-04-08T08:08:44.627Z,19.77
2023-04-08T08:11:12.283Z,19.30
2023-04-08T08:13:39.720Z,17.87
2023-04-08T08:16:09.197Z,17.73
2023-04-08T08:18:37.724Z,16.58
2023-04-08T08:21:06.351Z,20.15
2023-04-08T08:23:33.765Z,19.10
2023-04-08T08:26:02.450Z,18.65
2023-04-08T08:28:29.843Z,17.65
2023-04-08T08:30:59.658Z,18.20
2023-04-08T08:33:27.394Z,19.00
2023-04-08T08:35:55.641Z,17.42
2023-04-08T08:38:23.069Z,17.23
2023-04-08T08:40:58.331Z,19.33
2023-04-08T08:43:26.657Z,17.95
2023-04-08T08:45:54.659Z,18.15
2023-04-08T08:48:22.035Z,17.35
2023-04-08T08:50:49.459Z,15.55
2023-04-08T08:53:17.295Z,18.55
2023-04-08T08:56:13.679Z,15.65
2023-04-08T08:58:32.771Z,16.37
2023-04-08T09:01:00.303Z,16.48
2023-04-08T09:03:28.745Z,17.48
2023-04-08T09:05:58.521Z,15.00
2023-04-08T09:08:37.145Z,17.42
2023-04-08T09:11:11.486Z,16.75
2023-04-08T09:13:38.892Z,17.33
2023-04-08T09:16:18.228Z,17.35
2023-04-08T09:18:47.453Z,16.98
2023-04-08T09:21:17.050Z,35.85
2023-04-08T09:23:46.360Z,32.03
2023-04-08T09:26:16.425Z,17.90
2023-04-08T09:28:57.756Z,16.77
2023-04-08T09:31:27.858Z,19.33
2023-04-08T09:33:59.541Z,16.60
2023-04-08T09:36:27.578Z,17.83
2023-04-08T09:38:56.162Z,18.98
2023-04-08T09:41:25.012Z,17.50
2023-04-08T09:43:56.679Z,17.10
2023-04-08T09:46:33.636Z,18.30
2023-04-08T09:49:01.903Z,17.45
2023-04-08T09:51:35.068Z,16.67
2023-04-08T09:54:04.078Z,18.77
2023-04-08T09:56:38.437Z,22.50
2023-04-08T09:59:12.443Z,25.23
2023-04-08T10:01:48.859Z,24.48
2023-04-08T10:04:19.379Z,30.17
2023-04-08T10:06:54.796Z,26.25
2023-04-08T10:09:23.004Z,26.33
2023-04-08T10:11:50.944Z,26.08
2023-04-08T10:14:18.310Z,21.98
2023-04-08T10:16:46.095Z,22.83
2023-04-08T10:19:42.213Z,27.33
2023-04-08T10:22:48.936Z,25.27
2023-04-08T10:25:19.516Z,22.95
2023-04-08T10:27:47.778Z,21.12
2023-04-08T10:30:33.380Z,22.00
2023-04-08T10:33:01.511Z,25.12
2023-04-08T10:35:33.153Z,24.83
2023-04-08T10:38:02.166Z,40.20
2023-04-08T10:40:39.892Z,26.40
2023-04-08T10:43:07.780Z,26.12
2023-04-08T10:45:35.254Z,19.35
2023-04-08T10:48:31.983Z,23.67
2023-04-08T10:51:06.682Z,22.13
2023-04-08T10:53:42.047Z,22.75
2023-04-08T10:56:15.395Z,21.23
2023-04-08T10:58:50.825Z,22.35
2023-04-08T11:01:19.134Z,21.70
2023-04-08T11:03:46.764Z,22.70
2023-04-08T11:06:14.823Z,21.55
2023-04-08T11:08:42.523Z,23.08
2023-04-08T11:11:11.148Z,25.45
2023-04-08T11:13:52.708Z,23.65
2023-04-08T11:16:22.791Z,21.87
2023-04-08T11:18:51.185Z,22.40
2023-04-08T11:21:19.675Z,24.92
2023-04-08T11:23:51.040Z,21.77
2023-04-08T11:26:22.763Z,21.52
2023-04-08T11:28:52.045Z,23.52
2023-04-08T11:31:23.489Z,23.70
2023-04-08T11:36:22.062Z,21.92
2023-04-08T11:38:49.568Z,21.48
2023-04-08T11:41:17.649Z,21.65
2023-04-08T11:43:52.619Z,23.60
2023-04-08T11:46:20.672Z,25.33
2023-04-08T11:49:01.722Z,22.98
2023-04-08T11:51:29.489Z,25.35
2023-04-08T11:53:57.459Z,22.02
2023-04-08T11:56:25.200Z,21.17
2023-04-08T11:58:53.296Z,21.42
2023-04-08T12:01:21.580Z,32.05
2023-04-08T12:03:57.282Z,24.95
2023-04-08T12:06:27.238Z,23.30
2023-04-08T12:08:55.909Z,23.42
2023-04-08T12:11:24.434Z,22.15
2023-04-08T12:13:52.797Z,26.17
2023-04-08T12:16:23.598Z,27.55
2023-04-08T12:18:51.063Z,27.37
2023-04-08T12:21:18.492Z,24.20
2023-04-08T12:23:46.390Z,25.20
2023-04-08T12:26:14.597Z,27.80
2023-04-08T12:28:41.998Z,23.85
2023-04-08T12:31:09.706Z,24.35
2023-04-08T12:33:37.774Z,25.95
2023-04-08T12:36:05.314Z,24.90
2023-04-08T12:38:33.574Z,25.45
2023-04-08T12:41:01.025Z,26.33
2023-04-08T12:43:28.422Z,24.42
2023-04-08T12:45:56.629Z,22.85
2023-04-08T12:48:24.001Z,23.67
2023-04-08T12:50:51.357Z,23.92
2023-04-08T12:53:19.241Z,37.97
2023-04-08T12:55:48.024Z,32.63
2023-04-08T12:58:16.942Z,25.67
2023-04-08T13:00:46.770Z,23.67
2023-04-08T13:03:17.454Z,25.85
2023-04-08T13:05:45.265Z,23.87
2023-04-08T13:08:12.665Z,20.67
2023-04-08T13:10:40.378Z,20.90
2023-04-08T13:13:08.169Z,25.60
2023-04-08T13:15:35.606Z,22.87
2023-04-08T13:18:03.088Z,21.95
2023-04-08T13:20:30.911Z,19.85
2023-04-08T13:22:58.298Z,21.83
2023-04-08T13:25:25.729Z,23.30
2023-04-08T13:27:53.409Z,23.65
2023-04-08T13:30:20.867Z,22.87
2023-04-08T13:32:48.269Z,22.40
2023-04-08T13:35:16.229Z,32.50
2023-04-08T13:37:43.914Z,29.77
2023-04-08T13:40:12.367Z,19.48
2023-04-08T13:42:40.053Z,17.55
2023-04-08T13:45:07.889Z,20.92
2023-04-08T13:47:37.781Z,22.20
2023-04-08T13:50:11.381Z,20.80
2023-04-08T13:52:38.733Z,22.92
2023-04-08T13:55:06.905Z,25.52
2023-04-08T13:57:35.253Z,22.05
2023-04-08T14:00:03.562Z,21.27
2023-04-08T14:02:37.969Z,21.37
2023-04-08T14:05:06.385Z,20.70
2023-04-08T14:07:33.818Z,23.50
2023-04-08T14:10:01.477Z,21.12
2023-04-08T14:12:29.146Z,24.05
2023-04-08T14:14:56.549Z,16.27
2023-04-08T14:17:24.013Z,27.87
2023-04-08T14:19:51.727Z,22.10
2023-04-08T14:22:19.126Z,32.90
2023-04-08T14:24:46.637Z,36.92
2023-04-08T14:27:14.299Z,23.65
2023-04-08T14:29:44.552Z,18.87
2023-04-08T14:32:12.441Z,19.02
2023-04-08T14:34:40.169Z,22.48
2023-04-08T14:37:08.121Z,19.90
2023-04-08T14:39:35.897Z,18.75
2023-04-08T14:42:03.662Z,19.12
2023-04-08T14:44:31.071Z,20.12
2023-04-08T14:46:58.700Z,18.73
2023-04-08T14:49:26.404Z,18.98
2023-04-08T14:51:53.820Z,18.42
2023-04-08T14:54:21.284Z,17.73
2023-04-08T14:56:48.933Z,19.33
2023-04-08T14:59:16.397Z,17.65
2023-04-08T15:01:45.071Z,17.65
2023-04-08T15:04:12.895Z,19.55
2023-04-08T15:06:40.521Z,20.23
2023-04-08T15:09:07.934Z,23.15
2023-04-08T15:11:35.683Z,21.48
2023-04-08T15:14:03.085Z,29.63
2023-04-08T15:16:30.553Z,42.90
2023-04-08T15:19:00.370Z,28.12
2023-04-08T15:21:27.775Z,23.52
2023-04-08T15:23:55.302Z,20.52
2023-04-08T15:26:23.073Z,18.48
2023-04-08T15:28:52.645Z,19.55
2023-04-08T15:31:20.352Z,19.67
2023-04-08T15:33:48.833Z,20.73
2023-04-08T15:36:19.873Z,19.20
2023-04-08T15:38:47.909Z,19.15
2023-04-08T15:41:19.223Z,20.85
2023-04-08T15:43:46.921Z,21.25
2023-04-08T15:46:19.069Z,19.77
2023-04-08T15:48:47.274Z,17.85
2023-04-08T15:51:14.938Z,15.65
2023-04-08T15:53:43.157Z,11.52
2023-04-08T15:56:16.220Z,14.15
2023-04-08T15:58:45.058Z,13.93
2023-04-08T16:01:12.911Z,13.85
2023-04-08T16:03:41.077Z,12.65
2023-04-08T16:06:09.013Z,13.77
2023-04-08T16:08:37.160Z,13.68
2023-04-08T16:11:06.592Z,19.02
2023-04-08T16:13:34.239Z,27.62
2023-04-08T16:16:02.481Z,39.08
2023-04-08T16:18:30.617Z,26.37
2023-04-08T16:20:58.045Z,16.08
2023-04-08T16:23:25.474Z,17.17
2023-04-08T16:25:53.155Z,15.80
2023-04-08T16:28:22.112Z,18.95
2023-04-08T16:30:49.550Z,18.73
2023-04-08T16:33:17.244Z,15.80
2023-04-08T16:35:44.714Z,15.00
2023-04-08T16:38:12.248Z,15.13
2023-04-08T16:40:39.916Z,16.25
2023-04-08T16:43:07.435Z,14.60
2023-04-08T16:45:36.092Z,14.10
2023-04-08T16:48:03.989Z,15.50
2023-04-08T16:50:31.364Z,14.48
2023-04-08T16:52:58.914Z,14.43
2023-04-08T16:55:26.658Z,13.52
2023-04-08T16:57:54.650Z,13.88
2023-04-08T17:00:22.412Z,12.70
2023-04-08T17:02:50.707Z,14.77
2023-04-08T17:05:18.317Z,13.23
2023-04-08T17:07:45.933Z,14.05
2023-04-08T17:10:13.729Z,15.93
2023-04-08T17:12:41.631Z,17.35
2023-04-08T17:15:09.617Z,16.25
2023-04-08T17:17:37.725Z,17.37
2023-04-08T17:20:05.824Z,12.27
2023-04-08T17:22:33.230Z,10.35
2023-04-08T17:25:01.248Z,10.55
2023-04-08T17:27:28.612Z,10.88
2023-04-08T17:29:57.848Z,10.50
2023-04-08T17:32:25.830Z,10.88
2023-04-08T17:34:53.587Z,11.82
2023-04-08T17:37:21.230Z,11.50
2023-04-08T17:39:48.932Z,10.75
2023-04-08T17:42:16.958Z,11.63
2023-04-08T17:44:44.808Z,11.27
2023-04-08T17:47:12.572Z,11.07
2023-04-08T17:49:39.950Z,11.55
2023-04-08T17:52:07.386Z,12.00
2023-04-08T17:54:35.007Z,13.90
2023-04-08T17:57:03.120Z,12.32
2023-04-08T17:59:30.776Z,12.57
2023-04-08T18:01:58.507Z,14.07
2023-04-08T18:04:26.321Z,12.68
2023-04-08T18:06:53.728Z,12.35
2023-04-08T18:09:21.178Z,14.13
2023-04-08T18:11:48.830Z,12.93
2023-04-08T18:14:16.629Z,13.98
2023-04-08T18:16:45.426Z,14.00
2023-04-08T18:19:13.399Z,14.50
2023-04-08T18:21:40.798Z,13.45
2023-04-08T18:24:09.394Z,15.07
2023-04-08T18:26:37.128Z,14.85
2023-04-08T18:29:04.474Z,15.57
2023-04-08T18:31:31.836Z,15.75
2023-04-08T18:33:59.550Z,14.35
2023-04-08T18:36:27.390Z,13.80
2023-04-08T18:38:54.805Z,14.48
2023-04-08T18:41:24.964Z,15.20
2023-04-08T18:43:52.587Z,15.40
2023-04-08T18:46:20.527Z,16.95
2023-04-08T18:48:49.167Z,17.33
2023-04-08T18:51:19.376Z,17.37
2023-04-08T18:53:46.966Z,14.80
2023-04-08T18:56:18.650Z,15.32
2023-04-08T18:58:47.092Z,15.02
2023-04-08T19:01:14.862Z,15.18
2023-04-08T19:03:47.451Z,15.13
2023-04-08T19:06:17.367Z,15.25
2023-04-08T19:08:46.520Z,15.40
2023-04-08T19:11:15.933Z,17.67
2023-04-08T19:13:43.421Z,15.30
2023-04-08T19:16:11.270Z,16.83
2023-04-08T19:18:38.957Z,17.77
2023-04-08T19:21:06.336Z,18.20
2023-04-08T19:23:33.697Z,18.60
2023-04-08T19:26:05.239Z,18.87
2023-04-08T19:28:33.460Z,18.05
2023-04-08T19:31:02.074Z,17.40
2023-04-08T19:33:29.718Z,17.60
2023-04-08T19:35:57.647Z,16.08
2023-04-08T19:38:25.345Z,17.30
2023-04-08T19:40:52.815Z,16.83
2023-04-08T19:43:20.628Z,15.60
2023-04-08T19:45:53.422Z,15.55
2023-04-08T19:48:21.141Z,15.05
2023-04-08T19:50:50.986Z,14.90
2023-04-08T19:53:19.464Z,15.73
2023-04-08T19:55:47.023Z,14.98
2023-04-08T19:58:14.744Z,15.63
2023-04-08T20:00:42.233Z,15.30
2023-04-08T20:03:10.310Z,15.30
2023-04-08T20:05:37.986Z,14.57
2023-04-08T20:08:05.445Z,15.38
2023-04-08T20:10:33.196Z,16.00
2023-04-08T20:13:00.767Z,15.93
2023-04-08T20:15:28.271Z,15.30
2023-04-08T20:17:56.546Z,14.98
2023-04-08T20:20:24.177Z,14.23
2023-04-08T20:22:51.647Z,14.52
2023-04-08T20:25:19.508Z,15.25
2023-04-08T20:27:46.875Z,14.95
2023-04-08T20:30:14.303Z,13.82
2023-04-08T20:32:42.050Z,15.02
2023-04-08T20:35:09.554Z,16.00
2023-04-08T20:37:37.040Z,15.15
2023-04-08T20:40:05.182Z,15.23
2023-04-08T20:42:33.220Z,16.15
2023-04-08T20:45:00.615Z,16.65
2023-04-08T20:47:28.708Z,16.27
2023-04-08T20:49:56.153Z,15.63
2023-04-08T20:52:23.565Z,15.40
2023-04-08T20:54:51.279Z,16.58
2023-04-08T20:57:18.726Z,15.00
2023-04-08T20:59:46.140Z,14.57
2023-04-08T21:02:14.144Z,14.20
2023-04-08T21:04:41.818Z,15.35
2023-04-08T21:07:09.187Z,16.08
2023-04-08T21:09:36.861Z,16.90
2023-04-08T21:12:04.687Z,16.83
2023-04-08T21:14:32.162Z,17.33
2023-04-08T21:16:59.765Z,16.45
2023-04-08T21:19:27.128Z,16.70
2023-04-08T21:21:54.492Z,15.57
2023-04-08T21:24:22.234Z,14.98
2023-04-08T21:26:49.602Z,14.70
2023-04-08T21:29:16.921Z,15.77
2023-04-08T21:31:44.632Z,15.07
2023-04-08T21:34:13.317Z,15.65
2023-04-08T21:36:40.722Z,15.77
2023-04-08T21:39:08.403Z,16.55
2023-04-08T21:41:35.980Z,17.00
2023-04-08T21:44:04.777Z,15.98
2023-04-08T21:46:32.396Z,15.32
2023-04-08T21:48:59.849Z,17.05
2023-04-08T21:51:27.572Z,17.67
2023-04-08T21:53:55.290Z,15.13
2023-04-08T21:56:24.556Z,16.60
2023-04-08T21:58:52.364Z,16.90
2023-04-08T22:01:20.653Z,15.93
2023-04-08T22:03:48.411Z,15.23
2023-04-08T22:06:25.750Z,15.45
2023-04-08T22:08:59.565Z,15.40
2023-04-08T22:11:27.090Z,15.73
2023-04-08T22:13:54.471Z,15.40
2023-04-08T22:16:22.148Z,15.32
2023-04-08T22:18:49.653Z,16.33
2023-04-08T22:21:17.053Z,15.93
2023-04-08T22:23:45.448Z,14.60
2023-04-08T22:26:13.955Z,14.60
2023-04-08T22:28:43.130Z,15.10
2023-04-08T22:31:12.050Z,14.38
2023-04-08T22:33:39.645Z,16.23
2023-04-08T22:36:07.211Z,14.90
2023-04-08T22:38:34.929Z,15.15
2023-04-08T22:41:02.322Z,15.57
2023-04-08T22:43:29.729Z,14.87
2023-04-08T22:45:57.412Z,15.48
2023-04-08T22:48:24.809Z,13.82
2023-04-08T22:50:52.623Z,15.57
2023-04-08T22:53:21.268Z,14.25
2023-04-08T22:55:49.070Z,15.02
2023-04-08T22:58:16.457Z,14.95
2023-04-08T23:00:44.065Z,14.98
2023-04-08T23:03:11.596Z,15.30
2023-04-08T23:05:39.050Z,15.38
2023-04-08T23:08:06.881Z,15.07
2023-04-08T23:10:34.275Z,15.45
2023-04-08T23:13:01.642Z,15.57
2023-04-08T23:15:29.314Z,16.67
2023-04-08T23:17:56.777Z,16.33
2023-04-08T23:20:24.272Z,16.55
2023-04-08T23:22:52.003Z,17.33
2023-04-08T23:25:19.396Z,16.37
2023-04-08T23:27:46.751Z,16.27
2023-04-08T23:30:14.462Z,16.27
2023-04-08T23:32:41.980Z,17.15
2023-04-08T23:35:09.634Z,16.05
2023-04-08T23:37:37.278Z,15.73
2023-04-08T23:40:05.127Z,15.70
2023-04-08T23:42:32.550Z,15.25
2023-04-08T23:45:00.262Z,16.12
2023-04-08T23:47:27.722Z,16.25
2023-04-08T23:49:55.324Z,15.88
2023-04-08T23:52:23.010Z,16.98
2023-04-08T23:54:51.029Z,16.30
2023-04-08T23:57:20.393Z,16.17
2023-04-08T23:59:48.124Z,15.40
